Terminal Aerodrome Forecast
Issued by NWS

Home | Current Version | Previous Version | Text Only | Print | Product List | Glossary On
Versions: 1 2 3 4 5 6 7 8 9 10 11 12 13 14 15 16 17 18 19
000
FTUS46 KLOX 211859 AAA
TAFPMD
TAF AMD
KPMD 211859Z 2119/2218 24015KT P6SM SCT060 BKN120
     FM212200 24015G25KT P6SM BKN050 BKN100
     FM220400 25012KT P6SM SCT060 BKN150
     FM221300 28010KT P6SM SCT100=

USA.gov is the U.S. government's official web portal to all federal, state and local government web resources and services.